Time;durP1;ratioP1;P1;durP2;ratioP2;P2;SDS_P1;SDS_P2;PMS_P1;PMS_P2;Temp;Humidity;BMP_temperature;BMP_pressure;BME280_temperature;BME280_humidity;BME280_pressure;Samples;Min_cycle;Max_cycle;Signal;HPM_P1;HPM_P2
2021/12/16 00:02:42;;;;;;;;;;;24.10;36.20;;;;;;5122296;27;19918;-83
2021/12/16 00:07:45;;;;;;;;;;;24.20;36.20;;;;;;5137775;27;19920;-82
2021/12/16 00:30:10;;;;;;;;;;;24.10;35.70;;;;;;5139941;27;19917;-81
2021/12/16 00:32:46;;;;;;;;;;;24.10;35.70;;;;;;5139130;27;19908;-78
2021/12/16 00:35:15;;;;;;;;;;;24.10;35.70;;;;;;5104763;27;19945;-79
2021/12/16 00:37:40;;;;;;;;;;;24.10;35.70;;;;;;5121150;27;19919;-80
2021/12/16 00:40:06;;;;;;;;;;;24.10;35.60;;;;;;5120619;27;20324;-82
2021/12/16 00:42:55;;;;;;;;;;;24.10;35.60;;;;;;5136839;27;20328;-80
2021/12/16 00:48:02;;;;;;;;;;;24.10;35.60;;;;;;5136413;27;20251;-78
2021/12/16 00:58:07;;;;;;;;;;;24.10;35.70;;;;;;5118366;27;19911;-83
2021/12/16 01:00:35;;;;;;;;;;;24.10;35.70;;;;;;5117957;27;19964;-79
2021/12/16 01:36:39;;;;;;;;;;;23.90;35.80;;;;;;5136053;28;20398;-82
2021/12/16 01:50:05;;;;;;;;;;;24.00;35.80;;;;;;5040742;28;19909;-83
2021/12/16 01:55:11;;;;;;;;;;;23.90;35.80;;;;;;5052478;28;19920;-80
2021/12/16 01:57:44;;;;;;;;;;;23.90;35.80;;;;;;5052435;28;19909;-80
2021/12/16 02:00:12;;;;;;;;;;;23.90;35.80;;;;;;5035679;28;19932;-82
2021/12/16 02:02:50;;;;;;;;;;;23.90;35.80;;;;;;5052084;28;20259;-84
2021/12/16 02:05:55;;;;;;;;;;;23.90;35.80;;;;;;5050995;28;20428;-82
2021/12/16 02:10:38;;;;;;;;;;;23.90;35.90;;;;;;5051089;28;20548;-84
2021/12/16 02:29:44;;;;;;;;;;;23.90;36.00;;;;;;5137996;27;20354;-78
2021/12/16 02:37:23;;;;;;;;;;;23.90;36.00;;;;;;5138094;27;20396;-80
2021/12/16 02:39:48;;;;;;;;;;;23.80;36.00;;;;;;5137756;27;19914;-79
2021/12/16 02:42:18;;;;;;;;;;;23.80;36.00;;;;;;5119808;27;19990;-80
2021/12/16 02:50:12;;;;;;;;;;;23.80;36.00;;;;;;5137928;27;20244;-82
2021/12/16 02:52:38;;;;;;;;;;;23.80;36.10;;;;;;5137567;27;19907;-82
2021/12/16 02:55:06;;;;;;;;;;;23.80;36.00;;;;;;5137639;27;19971;-80
2021/12/16 02:57:37;;;;;;;;;;;23.80;36.00;;;;;;5119741;27;20005;-83
2021/12/16 03:00:03;;;;;;;;;;;23.80;36.00;;;;;;5137673;27;19976;-80
2021/12/16 03:02:29;;;;;;;;;;;23.90;36.10;;;;;;5137364;27;19943;-79
2021/12/16 03:04:55;;;;;;;;;;;23.80;36.00;;;;;;5137188;27;19959;-80
2021/12/16 03:07:21;;;;;;;;;;;23.80;36.00;;;;;;5137304;27;19918;-79
2021/12/16 03:15:02;;;;;;;;;;;23.80;36.10;;;;;;5137159;27;20541;-80
2021/12/16 03:17:41;;;;;;;;;;;23.80;36.10;;;;;;5120272;27;19923;-80
2021/12/16 03:20:15;;;;;;;;;;;23.80;36.10;;;;;;5136908;27;19915;-81
2021/12/16 03:22:53;;;;;;;;;;;23.80;36.20;;;;;;5137095;27;19915;-81
2021/12/16 03:25:42;;;;;;;;;;;23.80;36.20;;;;;;5120657;27;19991;-79
2021/12/16 03:38:51;;;;;;;;;;;23.70;36.20;;;;;;5136525;27;19915;-82
2021/12/16 03:41:16;;;;;;;;;;;23.80;36.20;;;;;;5136228;27;19960;-81
2021/12/16 03:43:42;;;;;;;;;;;23.70;36.20;;;;;;5136180;27;19923;-79
2021/12/16 03:48:39;;;;;;;;;;;23.70;36.20;;;;;;5137954;27;20102;-81
2021/12/16 03:51:06;;;;;;;;;;;23.80;36.20;;;;;;5118477;27;19908;-79
2021/12/16 03:53:31;;;;;;;;;;;23.70;36.20;;;;;;5118924;27;20010;-80
2021/12/16 03:55:57;;;;;;;;;;;23.70;36.20;;;;;;5136904;27;19973;-79
2021/12/16 03:58:22;;;;;;;;;;;23.70;36.20;;;;;;5119319;27;20006;-78
2021/12/16 04:00:50;;;;;;;;;;;23.70;36.20;;;;;;5119235;27;20316;-83
2021/12/16 04:03:16;;;;;;;;;;;23.70;36.30;;;;;;5136900;27;19907;-81
2021/12/16 04:05:44;;;;;;;;;;;23.70;36.30;;;;;;5100860;27;19911;-80
2021/12/16 04:08:12;;;;;;;;;;;23.70;36.30;;;;;;5120241;27;20303;-81
2021/12/16 04:10:47;;;;;;;;;;;23.70;36.30;;;;;;5118566;27;19915;-78
2021/12/16 04:13:13;;;;;;;;;;;23.70;36.30;;;;;;5119510;27;19918;-82
2021/12/16 04:15:39;;;;;;;;;;;23.70;36.30;;;;;;5136067;27;20326;-80
2021/12/16 04:18:07;;;;;;;;;;;23.70;36.30;;;;;;5135696;27;19907;-79
2021/12/16 04:20:32;;;;;;;;;;;23.70;36.30;;;;;;5117494;27;19907;-81
2021/12/16 04:22:58;;;;;;;;;;;23.70;36.30;;;;;;5135585;27;19912;-82
2021/12/16 04:25:28;;;;;;;;;;;23.70;36.40;;;;;;5117170;27;19911;-79
2021/12/16 04:27:57;;;;;;;;;;;23.70;36.40;;;;;;5135294;27;19907;-79
2021/12/16 04:30:23;;;;;;;;;;;23.70;36.40;;;;;;5135318;27;19908;-79
2021/12/16 04:32:48;;;;;;;;;;;23.70;36.40;;;;;;5135124;27;19921;-77
2021/12/16 04:35:14;;;;;;;;;;;23.70;36.40;;;;;;5135150;27;20006;-80
2021/12/16 04:37:39;;;;;;;;;;;23.60;36.30;;;;;;5117094;27;20001;-79
2021/12/16 04:40:07;;;;;;;;;;;23.60;36.40;;;;;;5117159;27;19908;-79
2021/12/16 04:42:37;;;;;;;;;;;23.70;36.40;;;;;;5125204;27;19936;-76
2021/12/16 04:45:08;;;;;;;;;;;23.60;36.40;;;;;;5079183;28;20340;-76
2021/12/16 04:47:34;;;;;;;;;;;23.60;36.40;;;;;;5114707;28;19965;-79
2021/12/16 04:50:01;;;;;;;;;;;23.60;36.40;;;;;;5114585;28;19908;-77
2021/12/16 04:52:27;;;;;;;;;;;23.60;36.50;;;;;;5114470;28;19960;-77
2021/12/16 04:54:55;;;;;;;;;;;23.70;36.50;;;;;;5114629;28;19908;-81
2021/12/16 04:57:23;;;;;;;;;;;23.60;36.40;;;;;;5096791;28;19908;-80
2021/12/16 04:59:48;;;;;;;;;;;23.60;36.50;;;;;;5096485;28;20048;-78
2021/12/16 05:02:15;;;;;;;;;;;23.60;36.40;;;;;;5114324;28;19972;-79
2021/12/16 05:04:43;;;;;;;;;;;23.60;36.50;;;;;;5096369;28;19908;-78
2021/12/16 05:07:12;;;;;;;;;;;23.60;36.50;;;;;;5079728;28;20320;-78
2021/12/16 05:12:07;;;;;;;;;;;23.60;36.50;;;;;;5114250;28;20381;-79
2021/12/16 05:14:33;;;;;;;;;;;23.60;36.50;;;;;;5114285;28;19908;-79
2021/12/16 05:17:05;;;;;;;;;;;23.60;36.50;;;;;;5096054;28;20351;-76
2021/12/16 05:19:33;;;;;;;;;;;23.60;36.50;;;;;;5114189;28;20464;-76
2021/12/16 05:24:15;;;;;;;;;;;23.60;36.50;;;;;;5096473;28;20271;-76
2021/12/16 05:24:44;;;;;;;;;;;23.60;36.50;;;;;;5098850;28;19951;-76
2021/12/16 05:27:15;;;;;;;;;;;23.60;36.60;;;;;;5079672;28;19990;-78
2021/12/16 05:29:40;;;;;;;;;;;23.60;36.60;;;;;;5096683;28;19912;-80
2021/12/16 05:32:06;;;;;;;;;;;23.60;36.60;;;;;;5096441;28;19914;-75
2021/12/16 05:34:31;;;;;;;;;;;23.60;36.60;;;;;;5113824;28;19908;-77
2021/12/16 05:37:01;;;;;;;;;;;23.60;36.60;;;;;;5113992;28;19922;-75
2021/12/16 05:39:27;;;;;;;;;;;23.60;36.60;;;;;;5096165;28;19999;-76
2021/12/16 05:41:55;;;;;;;;;;;23.60;36.60;;;;;;5096069;28;20003;-76
2021/12/16 05:44:20;;;;;;;;;;;23.60;36.60;;;;;;5113917;28;20352;-76
2021/12/16 05:46:46;;;;;;;;;;;23.60;36.60;;;;;;5096194;28;19927;-78
2021/12/16 05:49:12;;;;;;;;;;;23.60;36.60;;;;;;5113825;28;19919;-76
2021/12/16 05:51:38;;;;;;;;;;;23.60;36.60;;;;;;5114039;28;19912;-76
2021/12/16 05:54:03;;;;;;;;;;;23.50;36.50;;;;;;5130135;28;19919;-76
2021/12/16 05:56:31;;;;;;;;;;;23.60;36.60;;;;;;5082664;28;20344;-76
2021/12/16 05:58:59;;;;;;;;;;;23.50;36.60;;;;;;5100293;28;19908;-75
2021/12/16 06:01:29;;;;;;;;;;;23.50;36.60;;;;;;5083164;28;20222;-76
2021/12/16 06:03:54;;;;;;;;;;;23.50;36.60;;;;;;5083031;28;20339;-78
2021/12/16 06:06:22;;;;;;;;;;;23.50;36.60;;;;;;5099928;28;19912;-78
2021/12/16 06:08:48;;;;;;;;;;;23.50;36.70;;;;;;5083065;28;19934;-79
2021/12/16 06:13:44;;;;;;;;;;;23.50;36.70;;;;;;5118071;28;19908;-79
2021/12/16 06:27:14;;;;;;;;;;;23.70;37.50;;;;;;5102113;28;20007;-78
2021/12/16 06:29:43;;;;;;;;;;;23.80;37.70;;;;;;5083140;28;19915;-79
2021/12/16 06:32:11;;;;;;;;;;;23.80;37.50;;;;;;5117453;28;19911;-80
2021/12/16 06:34:37;;;;;;;;;;;23.80;37.50;;;;;;5083127;27;19915;-79
2021/12/16 06:37:07;;;;;;;;;;;23.80;37.40;;;;;;5111744;27;20026;-80
2021/12/16 06:39:35;;;;;;;;;;;23.90;37.50;;;;;;5108656;28;19907;-78
2021/12/16 06:42:04;;;;;;;;;;;23.90;37.50;;;;;;5118173;28;19908;-80
2021/12/16 06:44:36;;;;;;;;;;;23.90;37.40;;;;;;5104530;28;19916;-78
2021/12/16 06:47:07;;;;;;;;;;;24.00;37.40;;;;;;5117903;28;20296;-77
2021/12/16 06:49:37;;;;;;;;;;;24.00;37.30;;;;;;5101164;28;19908;-79
2021/12/16 06:52:07;;;;;;;;;;;24.00;37.30;;;;;;5117839;28;19908;-79
2021/12/16 06:54:52;;;;;;;;;;;24.00;37.20;;;;;;5117952;28;20245;-79
2021/12/16 06:57:27;;;;;;;;;;;24.00;37.20;;;;;;5117940;28;19973;-79
2021/12/16 06:59:57;;;;;;;;;;;24.00;37.20;;;;;;5117890;28;19923;-79
2021/12/16 07:04:57;;;;;;;;;;;24.10;37.10;;;;;;5101372;28;19934;-78
2021/12/16 07:07:23;;;;;;;;;;;24.10;37.10;;;;;;5116975;28;19908;-78
2021/12/16 07:09:48;;;;;;;;;;;24.10;37.00;;;;;;5112089;28;19912;-78
2021/12/16 07:12:23;;;;;;;;;;;24.10;37.50;;;;;;5079644;28;19908;-76
2021/12/16 07:14:49;;;;;;;;;;;24.10;37.70;;;;;;5079517;28;19908;-77
2021/12/16 07:17:15;;;;;;;;;;;24.10;38.40;;;;;;5097112;28;19908;-78
2021/12/16 07:19:41;;;;;;;;;;;24.20;42.50;;;;;;5097457;28;19908;-78
2021/12/16 07:22:07;;;;;;;;;;;24.20;47.60;;;;;;5097295;28;19908;-75
2021/12/16 07:24:35;;;;;;;;;;;24.30;51.90;;;;;;5097197;28;19991;-78
2021/12/16 07:27:00;;;;;;;;;;;24.30;52.20;;;;;;5096678;28;19944;-78
2021/12/16 07:29:27;;;;;;;;;;;24.30;52.00;;;;;;5079206;28;20480;-76
2021/12/16 07:31:53;;;;;;;;;;;24.30;52.10;;;;;;5097671;28;19964;-76
2021/12/16 07:34:21;;;;;;;;;;;24.30;52.10;;;;;;5079444;28;20332;-77
2021/12/16 07:36:47;;;;;;;;;;;24.30;51.90;;;;;;5097283;28;20408;-76
2021/12/16 07:39:14;;;;;;;;;;;24.30;51.50;;;;;;5097278;28;19952;-77
2021/12/16 07:41:41;;;;;;;;;;;24.30;51.30;;;;;;5097181;28;19962;-76
2021/12/16 07:44:12;;;;;;;;;;;24.40;51.20;;;;;;5079152;28;19916;-76
2021/12/16 07:46:54;;;;;;;;;;;24.40;50.90;;;;;;5080328;28;19935;-77
2021/12/16 07:49:24;;;;;;;;;;;24.50;50.60;;;;;;5096476;28;19919;-77
2021/12/16 07:51:49;;;;;;;;;;;24.50;50.20;;;;;;5096471;28;19915;-78
2021/12/16 07:54:15;;;;;;;;;;;24.50;50.30;;;;;;5062071;28;19907;-76
2021/12/16 07:56:43;;;;;;;;;;;24.50;49.40;;;;;;5079291;28;20359;-77
2021/12/16 07:59:09;;;;;;;;;;;24.60;49.20;;;;;;5096853;28;19950;-77
2021/12/16 08:01:35;;;;;;;;;;;24.60;48.90;;;;;;5062616;28;20237;-76
2021/12/16 08:04:03;;;;;;;;;;;24.60;48.30;;;;;;5096975;28;19966;-78
2021/12/16 08:06:29;;;;;;;;;;;24.70;47.90;;;;;;5078853;28;19916;-77
2021/12/16 08:08:56;;;;;;;;;;;24.80;47.50;;;;;;5062271;28;19935;-80
2021/12/16 08:11:22;;;;;;;;;;;24.80;47.30;;;;;;5096857;28;19908;-77
2021/12/16 08:13:47;;;;;;;;;;;24.80;46.80;;;;;;5079048;28;19920;-79
2021/12/16 08:16:13;;;;;;;;;;;24.90;46.70;;;;;;5078567;28;19999;-78
2021/12/16 08:18:38;;;;;;;;;;;24.90;46.30;;;;;;5096173;28;19908;-77
2021/12/16 08:21:06;;;;;;;;;;;24.90;46.00;;;;;;5078409;28;19962;-78
2021/12/16 08:23:32;;;;;;;;;;;25.00;46.00;;;;;;5095819;28;19908;-77
2021/12/16 08:26:00;;;;;;;;;;;25.00;45.60;;;;;;5078220;28;20402;-79
2021/12/16 08:28:28;;;;;;;;;;;25.00;45.50;;;;;;5061916;28;19916;-78
2021/12/16 08:30:53;;;;;;;;;;;25.00;45.20;;;;;;5096212;28;19908;-78
2021/12/16 08:33:21;;;;;;;;;;;25.10;45.10;;;;;;5096181;28;20396;-78
2021/12/16 08:35:48;;;;;;;;;;;25.10;44.80;;;;;;5078846;28;19916;-77
2021/12/16 08:38:14;;;;;;;;;;;25.10;44.70;;;;;;5078456;28;19908;-78
2021/12/16 08:40:41;;;;;;;;;;;25.10;44.60;;;;;;5096258;28;19952;-77
2021/12/16 08:43:12;;;;;;;;;;;25.10;44.40;;;;;;5093258;28;19908;-77
2021/12/16 08:45:38;;;;;;;;;;;25.20;44.30;;;;;;5058604;28;20476;-77
2021/12/16 08:48:08;;;;;;;;;;;25.20;44.20;;;;;;5074809;28;20197;-77
2021/12/16 08:50:34;;;;;;;;;;;25.20;44.10;;;;;;5075534;28;20356;-78
2021/12/16 08:53:02;;;;;;;;;;;25.20;44.00;;;;;;5041130;28;19936;-78
2021/12/16 08:55:29;;;;;;;;;;;25.20;43.90;;;;;;5041251;28;19970;-78
2021/12/16 08:57:57;;;;;;;;;;;25.30;43.80;;;;;;5041165;28;19909;-80
2021/12/16 09:00:24;;;;;;;;;;;25.30;43.60;;;;;;5041250;28;19976;-80
2021/12/16 09:02:49;;;;;;;;;;;25.30;43.40;;;;;;5058494;28;20314;-78
2021/12/16 09:05:15;;;;;;;;;;;25.30;43.30;;;;;;5058145;28;20340;-79
2021/12/16 09:07:46;;;;;;;;;;;21.00;38.30;;;;;;5057837;28;19951;-77
2021/12/16 09:10:14;;;;;;;;;;;21.20;37.90;;;;;;5060576;28;19916;-78
2021/12/16 09:13:00;;;;;;;;;;;22.00;45.10;;;;;;5057790;28;19912;-77
2021/12/16 09:15:26;;;;;;;;;;;22.60;44.10;;;;;;5075369;28;19909;-78
2021/12/16 09:17:52;;;;;;;;;;;23.20;43.20;;;;;;5058185;28;20356;-78
2021/12/16 09:20:18;;;;;;;;;;;23.60;42.70;;;;;;5057732;28;19909;-78
2021/12/16 09:22:43;;;;;;;;;;;23.90;42.20;;;;;;5057729;28;19919;-77
2021/12/16 09:25:09;;;;;;;;;;;24.20;41.90;;;;;;5075025;28;20003;-77
2021/12/16 09:27:35;;;;;;;;;;;24.30;41.70;;;;;;5074731;28;19920;-76
2021/12/16 09:30:00;;;;;;;;;;;24.50;41.50;;;;;;5058743;28;19928;-78
2021/12/16 09:32:29;;;;;;;;;;;24.60;41.40;;;;;;5061653;28;19908;-77
2021/12/16 09:34:56;;;;;;;;;;;24.60;41.20;;;;;;5045394;28;19935;-77
2021/12/16 09:37:24;;;;;;;;;;;24.70;41.20;;;;;;5062561;28;19909;-78
2021/12/16 09:39:50;;;;;;;;;;;24.80;41.10;;;;;;5079382;28;19915;-76
2021/12/16 09:42:15;;;;;;;;;;;24.90;41.10;;;;;;5061844;28;19996;-77
2021/12/16 09:44:42;;;;;;;;;;;24.90;41.00;;;;;;5044768;28;20296;-78
2021/12/16 09:47:09;;;;;;;;;;;25.00;41.10;;;;;;5061060;28;19916;-78
2021/12/16 09:49:34;;;;;;;;;;;25.00;40.90;;;;;;5078523;28;19936;-77
2021/12/16 09:52:00;;;;;;;;;;;25.00;41.00;;;;;;5061135;28;19908;-77
2021/12/16 09:54:26;;;;;;;;;;;25.10;41.10;;;;;;5079037;28;19908;-78
2021/12/16 09:56:54;;;;;;;;;;;25.10;40.90;;;;;;5078681;28;19909;-77
2021/12/16 09:59:20;;;;;;;;;;;25.10;40.90;;;;;;5078657;28;19972;-79
2021/12/16 10:01:49;;;;;;;;;;;25.20;40.80;;;;;;5078378;28;20404;-77
2021/12/16 10:04:19;;;;;;;;;;;25.20;40.80;;;;;;5061142;28;20364;-79
2021/12/16 10:06:49;;;;;;;;;;;25.20;40.60;;;;;;5060716;28;20011;-78
2021/12/16 10:09:14;;;;;;;;;;;25.20;40.60;;;;;;5060456;28;19919;-77
2021/12/16 10:11:41;;;;;;;;;;;25.30;40.70;;;;;;5060657;28;19908;-77
2021/12/16 10:19:25;;;;;;;;;;;25.30;40.60;;;;;;5078216;28;19998;-77
2021/12/16 10:21:51;;;;;;;;;;;25.30;40.50;;;;;;5044235;28;19916;-76
2021/12/16 10:24:35;;;;;;;;;;;25.30;40.40;;;;;;5043903;28;19908;-78
2021/12/16 10:27:06;;;;;;;;;;;25.30;40.40;;;;;;5077982;28;19924;-78
2021/12/16 10:29:34;;;;;;;;;;;25.30;40.20;;;;;;5078128;28;19909;-77
2021/12/16 10:32:00;;;;;;;;;;;25.40;40.30;;;;;;5078254;28;20002;-77
2021/12/16 10:34:27;;;;;;;;;;;25.40;40.20;;;;;;5043960;28;19955;-77
2021/12/16 10:36:56;;;;;;;;;;;25.40;40.20;;;;;;5044246;28;19915;-78
2021/12/16 10:39:22;;;;;;;;;;;25.40;40.20;;;;;;5043904;28;19908;-76
2021/12/16 10:41:52;;;;;;;;;;;25.40;40.10;;;;;;5059380;28;19908;-77
2021/12/16 10:44:32;;;;;;;;;;;25.40;40.00;;;;;;5072159;28;20319;-78
2021/12/16 10:47:00;;;;;;;;;;;25.40;40.00;;;;;;5098214;28;20278;-78
2021/12/16 10:49:27;;;;;;;;;;;25.50;40.20;;;;;;5098049;28;19918;-78
2021/12/16 10:51:56;;;;;;;;;;;25.40;40.20;;;;;;5080211;28;19918;-77
2021/12/16 10:54:22;;;;;;;;;;;25.50;40.20;;;;;;5080649;28;19908;-78
2021/12/16 10:56:57;;;;;;;;;;;25.40;40.10;;;;;;5097746;28;19908;-77
2021/12/16 10:59:22;;;;;;;;;;;25.40;40.10;;;;;;5097640;28;19908;-78
2021/12/16 11:02:08;;;;;;;;;;;25.50;40.10;;;;;;5079708;28;19912;-80
2021/12/16 11:04:39;;;;;;;;;;;25.50;40.10;;;;;;5086647;28;19954;-78
2021/12/16 11:07:06;;;;;;;;;;;25.50;40.10;;;;;;5079960;28;19912;-77
2021/12/16 11:09:32;;;;;;;;;;;25.50;40.00;;;;;;5063038;28;20060;-78
2021/12/16 11:12:20;;;;;;;;;;;25.50;40.00;;;;;;5097260;28;20005;-77
2021/12/16 11:14:56;;;;;;;;;;;25.50;40.00;;;;;;5089357;28;19909;-77
2021/12/16 11:17:23;;;;;;;;;;;25.60;40.00;;;;;;5097191;28;19915;-77
2021/12/16 11:19:53;;;;;;;;;;;25.60;40.10;;;;;;5079580;28;19923;-79
2021/12/16 11:22:28;;;;;;;;;;;25.60;40.00;;;;;;5097535;28;19912;-78
2021/12/16 11:24:54;;;;;;;;;;;25.60;40.00;;;;;;5097383;28;19949;-77
2021/12/16 11:27:26;;;;;;;;;;;25.60;40.00;;;;;;5079654;28;19912;-78
2021/12/16 11:29:51;;;;;;;;;;;25.60;40.00;;;;;;5097270;28;19908;-81
2021/12/16 11:32:37;;;;;;;;;;;25.60;39.80;;;;;;5079554;28;19949;-76
2021/12/16 11:35:28;;;;;;;;;;;25.60;39.70;;;;;;5062745;28;19908;-76
2021/12/16 11:37:56;;;;;;;;;;;25.60;39.60;;;;;;5089690;28;19908;-78
2021/12/16 11:40:24;;;;;;;;;;;25.60;39.30;;;;;;5079422;28;20287;-77
2021/12/16 11:43:02;;;;;;;;;;;25.60;39.10;;;;;;5062649;28;19994;-78
2021/12/16 11:45:47;;;;;;;;;;;25.70;39.00;;;;;;5096813;28;19920;-77
2021/12/16 11:48:27;;;;;;;;;;;25.60;39.00;;;;;;5062637;28;19908;-76
2021/12/16 11:50:59;;;;;;;;;;;25.60;39.30;;;;;;5079185;28;19989;-77
2021/12/16 11:53:33;;;;;;;;;;;25.70;39.60;;;;;;5078779;28;20257;-77
2021/12/16 11:55:58;;;;;;;;;;;25.70;39.60;;;;;;5099317;28;19912;-77
2021/12/16 11:58:30;;;;;;;;;;;25.70;39.60;;;;;;5096472;28;19908;-77
2021/12/16 12:00:58;;;;;;;;;;;25.70;39.60;;;;;;5079102;28;19919;-78
2021/12/16 12:03:26;;;;;;;;;;;25.70;39.60;;;;;;5078988;28;19908;-77
2021/12/16 12:05:53;;;;;;;;;;;25.70;39.60;;;;;;5078564;28;19916;-76
2021/12/16 12:08:21;;;;;;;;;;;25.70;39.60;;;;;;5096071;28;19911;-77
2021/12/16 12:10:50;;;;;;;;;;;25.80;39.80;;;;;;5079635;28;19953;-77
2021/12/16 12:13:15;;;;;;;;;;;25.70;39.60;;;;;;5096218;28;20334;-76
2021/12/16 12:15:54;;;;;;;;;;;25.70;39.40;;;;;;5096244;28;19908;-79
2021/12/16 12:18:29;;;;;;;;;;;25.70;39.20;;;;;;5096463;28;19908;-79
2021/12/16 12:20:57;;;;;;;;;;;25.70;39.10;;;;;;5096921;28;19915;-78
2021/12/16 12:23:23;;;;;;;;;;;25.70;39.00;;;;;;5079290;28;20006;-78
2021/12/16 12:25:48;;;;;;;;;;;25.70;39.00;;;;;;5078688;28;20427;-77
2021/12/16 12:28:16;;;;;;;;;;;25.70;39.00;;;;;;5078817;28;19908;-78
2021/12/16 12:30:42;;;;;;;;;;;25.70;38.90;;;;;;5079279;28;19923;-77
2021/12/16 12:33:10;;;;;;;;;;;25.70;39.60;;;;;;5096658;28;19908;-79
2021/12/16 12:35:38;;;;;;;;;;;25.70;39.30;;;;;;5096450;28;19908;-83
2021/12/16 12:38:06;;;;;;;;;;;25.70;39.30;;;;;;5078593;28;19908;-80
2021/12/16 12:40:36;;;;;;;;;;;25.70;39.70;;;;;;5062200;28;19923;-79
2021/12/16 12:43:04;;;;;;;;;;;25.70;40.00;;;;;;5061459;28;19934;-81
2021/12/16 12:45:32;;;;;;;;;;;25.60;40.10;;;;;;5061953;28;19912;-82
2021/12/16 12:47:58;;;;;;;;;;;25.60;40.30;;;;;;5062029;28;19918;-79
2021/12/16 12:50:28;;;;;;;;;;;25.60;40.50;;;;;;5061726;28;20015;-81
2021/12/16 12:52:54;;;;;;;;;;;25.60;40.50;;;;;;5061649;28;19916;-79
2021/12/16 12:55:22;;;;;;;;;;;25.60;40.70;;;;;;5061513;28;19908;-79
2021/12/16 12:57:50;;;;;;;;;;;25.70;40.70;;;;;;5095995;28;19908;-78
2021/12/16 13:00:26;;;;;;;;;;;25.70;40.80;;;;;;5062249;28;19947;-79
2021/12/16 13:03:01;;;;;;;;;;;25.70;40.80;;;;;;5061829;28;19908;-78
2021/12/16 13:05:26;;;;;;;;;;;25.70;41.10;;;;;;5095514;28;19957;-80
2021/12/16 13:07:53;;;;;;;;;;;25.60;40.90;;;;;;5062342;28;19912;-82
2021/12/16 13:10:28;;;;;;;;;;;25.50;41.00;;;;;;5061182;28;19934;-79
2021/12/16 13:13:16;;;;;;;;;;;25.30;41.20;;;;;;5061618;28;20355;-81
2021/12/16 13:23:36;;;;;;;;;;;18.50;38.80;;;;;;5095214;28;20354;-78
2021/12/16 13:31:03;;;;;;;;;;;16.00;41.00;;;;;;5077409;28;20325;-77
2021/12/16 13:33:37;;;;;;;;;;;15.80;41.60;;;;;;5078174;28;20329;-77
2021/12/16 13:36:07;;;;;;;;;;;15.80;41.80;;;;;;5061688;28;20510;-78
2021/12/16 13:38:39;;;;;;;;;;;15.70;41.80;;;;;;5078113;28;19987;-79
2021/12/16 13:41:15;;;;;;;;;;;15.60;42.30;;;;;;5060374;28;19908;-78
2021/12/16 13:43:53;;;;;;;;;;;15.70;41.60;;;;;;5077632;28;20357;-79
2021/12/16 13:46:33;;;;;;;;;;;15.60;41.50;;;;;;5060202;28;19915;-79
2021/12/16 14:03:09;;;;;;;;;;;20.20;43.20;;;;;;5079876;28;19969;-80
2021/12/16 14:05:48;;;;;;;;;;;20.50;42.40;;;;;;5078273;28;19912;-79
2021/12/16 14:08:26;;;;;;;;;;;20.80;42.30;;;;;;5078142;28;19961;-79
2021/12/16 14:11:00;;;;;;;;;;;21.10;42.30;;;;;;5077859;28;19916;-80
2021/12/16 14:31:06;;;;;;;;;;;21.60;42.40;;;;;;5082043;28;20398;-83
2021/12/16 14:35:48;;;;;;;;;;;21.80;42.80;;;;;;5081104;28;19916;-79
2021/12/16 14:38:40;;;;;;;;;;;21.80;42.80;;;;;;5083376;28;20317;-82
2021/12/16 14:41:08;;;;;;;;;;;21.90;42.90;;;;;;5084018;28;19931;-82
2021/12/16 14:43:54;;;;;;;;;;;21.90;43.00;;;;;;5081204;28;19968;-79
2021/12/16 14:46:26;;;;;;;;;;;21.90;43.00;;;;;;5083336;28;19926;-82
2021/12/16 14:48:52;;;;;;;;;;;21.90;43.00;;;;;;5065126;28;19908;-83
2021/12/16 14:51:20;;;;;;;;;;;22.00;42.90;;;;;;5063412;28;19908;-82
2021/12/16 14:53:46;;;;;;;;;;;22.00;43.00;;;;;;5063197;28;19912;-80
2021/12/16 14:56:13;;;;;;;;;;;22.00;42.90;;;;;;5063328;28;20026;-81
2021/12/16 14:58:39;;;;;;;;;;;22.00;43.00;;;;;;5062997;28;19912;-80
2021/12/16 15:01:14;;;;;;;;;;;22.00;43.00;;;;;;5063022;28;19915;-79
2021/12/16 15:03:43;;;;;;;;;;;22.10;43.10;;;;;;5079963;28;19908;-81
2021/12/16 15:06:32;;;;;;;;;;;22.10;43.10;;;;;;5080119;28;19916;-82
2021/12/16 15:11:39;;;;;;;;;;;22.10;43.10;;;;;;5080327;28;20249;-82
2021/12/16 15:14:18;;;;;;;;;;;22.10;43.20;;;;;;5081186;28;19998;-83
2021/12/16 15:43:45;;;;;;;;;;;22.20;44.10;;;;;;5096416;28;19996;-80
2021/12/16 15:46:11;;;;;;;;;;;22.20;44.00;;;;;;5079428;28;20398;-77
2021/12/16 15:48:36;;;;;;;;;;;22.20;44.10;;;;;;5079390;28;19959;-81
2021/12/16 15:51:02;;;;;;;;;;;22.20;43.90;;;;;;5064252;28;19912;-80
2021/12/16 15:53:30;;;;;;;;;;;22.20;44.30;;;;;;5096637;28;20337;-80
2021/12/16 15:55:59;;;;;;;;;;;22.20;44.20;;;;;;5061971;28;19962;-79
2021/12/16 15:58:29;;;;;;;;;;;22.30;43.80;;;;;;5078730;28;19908;-80
2021/12/16 16:00:57;;;;;;;;;;;22.20;44.10;;;;;;5096207;28;19908;-77
2021/12/16 16:03:23;;;;;;;;;;;22.20;44.30;;;;;;5078652;28;20002;-77
2021/12/16 16:05:50;;;;;;;;;;;22.20;45.10;;;;;;5096328;28;20015;-80
2021/12/16 16:08:18;;;;;;;;;;;22.20;45.00;;;;;;5061675;28;19908;-76
2021/12/16 16:10:47;;;;;;;;;;;22.10;45.10;;;;;;5078789;28;19958;-77
2021/12/16 16:13:16;;;;;;;;;;;22.20;44.80;;;;;;5061563;28;19910;-78
2021/12/16 16:15:43;;;;;;;;;;;22.10;44.60;;;;;;5095558;28;19919;-80
2021/12/16 16:18:16;;;;;;;;;;;22.10;44.30;;;;;;5078124;28;19969;-78
2021/12/16 16:20:43;;;;;;;;;;;22.10;44.50;;;;;;5078678;28;20344;-76
2021/12/16 16:23:11;;;;;;;;;;;22.00;44.50;;;;;;5095057;28;20317;-77
2021/12/16 16:25:36;;;;;;;;;;;22.00;44.30;;;;;;5078409;28;20221;-78
2021/12/16 16:28:02;;;;;;;;;;;22.00;44.00;;;;;;5061650;28;19919;-78
2021/12/16 16:30:31;;;;;;;;;;;22.00;43.80;;;;;;5061367;28;19937;-77
2021/12/16 16:32:58;;;;;;;;;;;22.00;43.60;;;;;;5078252;28;20006;-77
2021/12/16 16:35:26;;;;;;;;;;;21.90;43.50;;;;;;5077923;28;19908;-78
2021/12/16 16:37:51;;;;;;;;;;;21.90;43.50;;;;;;5078537;28;19946;-77
2021/12/16 16:40:17;;;;;;;;;;;21.90;43.40;;;;;;5077092;28;19989;-78
2021/12/16 16:42:42;;;;;;;;;;;21.90;43.50;;;;;;5077715;28;19908;-78
2021/12/16 16:45:19;;;;;;;;;;;21.80;43.30;;;;;;5077551;28;19952;-77
2021/12/16 16:47:51;;;;;;;;;;;21.80;43.30;;;;;;5078845;28;19964;-78
2021/12/16 16:50:17;;;;;;;;;;;21.80;43.20;;;;;;5078106;28;19908;-78
2021/12/16 16:52:48;;;;;;;;;;;21.80;43.30;;;;;;5077102;28;19908;-77
2021/12/16 16:55:15;;;;;;;;;;;21.80;43.20;;;;;;5060664;28;19919;-78
2021/12/16 16:57:47;;;;;;;;;;;21.80;43.70;;;;;;5078803;28;19908;-79
2021/12/16 17:00:33;;;;;;;;;;;21.80;43.00;;;;;;5097073;28;19965;-78
2021/12/16 17:03:06;;;;;;;;;;;21.80;43.00;;;;;;5079241;28;19919;-76
2021/12/16 17:05:31;;;;;;;;;;;21.70;43.00;;;;;;5098409;28;20002;-77
2021/12/16 17:08:05;;;;;;;;;;;21.70;43.10;;;;;;5096750;28;19951;-76
2021/12/16 17:10:43;;;;;;;;;;;21.70;43.00;;;;;;5062147;28;19968;-77
2021/12/16 17:13:18;;;;;;;;;;;21.70;43.10;;;;;;5078367;28;19912;-80
2021/12/16 17:17:12;;;;;;;;;;;21.80;43.10;;;;;;5061173;28;20267;-77
2021/12/16 17:18:29;;;;;;;;;;;21.70;43.00;;;;;;5079678;28;19971;-77
2021/12/16 17:20:55;;;;;;;;;;;21.70;43.00;;;;;;5079179;28;19908;-78
2021/12/16 17:23:21;;;;;;;;;;;21.70;42.90;;;;;;5094739;28;20325;-78
2021/12/16 17:25:47;;;;;;;;;;;21.70;42.90;;;;;;5094723;28;20117;-78
2021/12/16 17:28:13;;;;;;;;;;;21.70;42.80;;;;;;5095075;28;19915;-79
2021/12/16 17:30:41;;;;;;;;;;;21.70;42.90;;;;;;5094811;28;20326;-77
2021/12/16 17:33:10;;;;;;;;;;;21.70;42.80;;;;;;5094753;28;19993;-77
2021/12/16 17:35:39;;;;;;;;;;;21.70;42.90;;;;;;5077735;28;19931;-78
2021/12/16 17:38:06;;;;;;;;;;;21.70;42.80;;;;;;5060412;28;19908;-76
2021/12/16 17:40:37;;;;;;;;;;;21.70;42.90;;;;;;5076777;28;19930;-80
2021/12/16 17:43:05;;;;;;;;;;;21.70;42.80;;;;;;5061340;28;20279;-78
2021/12/16 17:45:35;;;;;;;;;;;21.70;42.70;;;;;;5094720;28;19920;-79
2021/12/16 17:48:01;;;;;;;;;;;21.70;42.70;;;;;;5077376;28;20377;-80
2021/12/16 17:50:28;;;;;;;;;;;21.70;42.70;;;;;;5078007;28;19908;-81
2021/12/16 17:52:55;;;;;;;;;;;21.70;42.70;;;;;;5081416;28;19908;-79
2021/12/16 17:55:23;;;;;;;;;;;21.70;42.70;;;;;;5081527;28;19908;-80
2021/12/16 17:57:49;;;;;;;;;;;21.70;42.80;;;;;;5080844;28;19908;-80
2021/12/16 18:00:41;;;;;;;;;;;21.70;42.70;;;;;;5080866;28;19918;-80
2021/12/16 18:03:09;;;;;;;;;;;21.70;42.60;;;;;;5080681;28;20026;-78
2021/12/16 18:05:44;;;;;;;;;;;21.70;42.80;;;;;;5063590;28;19908;-79
2021/12/16 18:08:12;;;;;;;;;;;21.70;42.80;;;;;;5064249;28;20007;-80
2021/12/16 18:10:38;;;;;;;;;;;21.60;42.70;;;;;;5080446;28;19999;-76
2021/12/16 18:13:04;;;;;;;;;;;21.60;42.60;;;;;;5080744;28;19948;-80
2021/12/16 18:15:31;;;;;;;;;;;21.70;42.70;;;;;;5098690;28;19919;-81
2021/12/16 18:18:00;;;;;;;;;;;21.60;42.60;;;;;;5064298;28;19924;-77